Time;durP1;ratioP1;P1;durP2;ratioP2;P2;SDS_P1;SDS_P2;PMS_P1;PMS_P2;Temp;Humidity;BMP_temperature;BMP_pressure;BME280_temperature;BME280_humidity;BME280_pressure;Samples;Min_cycle;Max_cycle;Signal;HPM_P1;HPM_P2
2021/03/19 00:01:29;;;;;;;5.00;2.30;;;;;;;14.92;35.93;100515.81;4979931;28;20042;-72
2021/03/19 00:03:56;;;;;;;2.07;1.80;;;;;;;15.25;35.83;100577.63;4979012;28;20133;-72
2021/03/19 00:06:23;;;;;;;7.40;2.47;;;;;;;15.17;35.70;100575.50;4976833;28;20055;-73
2021/03/19 00:08:50;;;;;;;5.90;3.33;;;;;;;15.06;35.81;100568.41;4975184;28;20185;-72
2021/03/19 00:11:17;;;;;;;2.47;1.33;;;;;;;15.14;35.48;100567.69;4979866;28;20053;-73
2021/03/19 00:13:43;;;;;;;6.43;2.43;;;;;;;15.04;35.27;100577.19;4979572;28;20050;-73
2021/03/19 00:16:11;;;;;;;2.77;2.13;;;;;;;14.96;35.62;100557.34;4979580;28;20130;-73
2021/03/19 00:18:38;;;;;;;2.10;1.23;;;;;;;14.97;35.57;100584.31;4979514;28;20054;-73
2021/03/19 00:21:05;;;;;;;3.43;2.00;;;;;;;14.87;35.38;100566.53;4982505;28;20420;-72
2021/03/19 00:23:32;;;;;;;6.57;2.77;;;;;;;14.85;35.66;100582.03;4977216;28;20051;-73
2021/03/19 00:25:59;;;;;;;2.13;1.10;;;;;;;14.69;35.78;100587.91;4977868;28;20046;-76
2021/03/19 00:28:26;;;;;;;7.10;1.67;;;;;;;14.84;35.26;100584.00;4980342;28;20141;-76
2021/03/19 00:30:52;;;;;;;5.43;2.23;;;;;;;14.60;35.27;100569.25;4978820;28;20053;-83
2021/03/19 00:33:19;;;;;;;5.43;2.40;;;;;;;14.65;35.20;100592.47;4981886;28;20046;-85
2021/03/19 00:35:46;;;;;;;2.40;1.10;;;;;;;14.71;35.38;100590.41;4983363;28;20054;-83
2021/03/19 00:38:14;;;;;;;2.23;1.83;;;;;;;14.45;35.43;100590.78;4965525;28;20069;-77
2021/03/19 00:40:41;;;;;;;1.90;1.23;;;;;;;14.52;35.46;100592.41;4978640;28;20377;-78
2021/03/19 00:43:10;;;;;;;3.47;2.37;;;;;;;14.23;35.37;100587.78;4974124;28;20122;-76
2021/03/19 00:45:36;;;;;;;5.82;1.83;;;;;;;14.37;35.42;100597.13;4971355;28;20049;-72
2021/03/19 00:48:03;;;;;;;1.77;1.40;;;;;;;14.23;35.58;100596.22;4977509;28;20576;-72
2021/03/19 00:50:41;;;;;;;3.50;1.47;;;;;;;14.31;35.45;100601.13;4977581;28;20125;-71
2021/03/19 00:53:08;;;;;;;2.67;1.57;;;;;;;14.27;35.45;100608.50;4996995;28;20046;-73
2021/03/19 00:55:35;;;;;;;2.00;1.80;;;;;;;14.29;35.06;100578.16;4997482;28;20501;-72
2021/03/19 00:58:03;;;;;;;2.23;1.00;;;;;;;14.29;35.13;100596.97;5000445;28;20080;-73
2021/03/19 01:00:35;;;;;;;4.27;1.77;;;;;;;14.52;34.93;100603.66;4996094;28;20044;-73
2021/03/19 01:03:03;;;;;;;2.73;1.03;;;;;;;14.35;35.04;100592.94;4999081;28;20054;-71
2021/03/19 01:05:34;;;;;;;1.90;1.00;;;;;;;14.42;34.85;100615.84;4993581;28;20049;-72
2021/03/19 01:08:07;;;;;;;2.63;1.17;;;;;;;14.35;34.74;100596.56;4995828;28;20046;-72
2021/03/19 01:10:37;;;;;;;2.63;1.57;;;;;;;14.20;35.05;100588.41;4994818;28;20128;-69
2021/03/19 01:13:04;;;;;;;0.97;0.70;;;;;;;14.36;34.71;100612.31;5005251;28;20073;-69
2021/03/19 01:15:31;;;;;;;2.43;1.37;;;;;;;14.42;34.87;100616.69;4994494;28;20045;-69
2021/03/19 01:17:59;;;;;;;1.70;0.87;;;;;;;14.11;34.85;100587.41;4993508;28;20050;-72
2021/03/19 01:20:28;;;;;;;6.53;1.90;;;;;;;14.18;34.93;100616.78;4988620;28;20121;-70
2021/03/19 01:22:55;;;;;;;3.53;1.47;;;;;;;14.25;34.74;100627.63;5001714;28;20470;-73
2021/03/19 01:25:24;;;;;;;5.23;2.30;;;;;;;14.12;34.90;100618.00;5000476;28;20042;-71
2021/03/19 01:27:51;;;;;;;2.22;1.08;;;;;;;13.92;35.01;100593.84;5002039;28;20439;-81
2021/03/19 01:30:20;;;;;;;2.27;1.13;;;;;;;14.03;34.98;100614.19;4999491;28;20060;-69
2021/03/19 01:32:47;;;;;;;2.77;1.63;;;;;;;13.96;35.28;100606.16;4995808;28;20050;-72
2021/03/19 01:35:15;;;;;;;5.37;1.47;;;;;;;14.06;34.75;100590.31;4994977;28;20319;-72
2021/03/19 01:37:43;;;;;;;0.63;0.50;;;;;;;13.78;35.27;100606.09;4996731;28;20073;-73
2021/03/19 01:40:11;;;;;;;2.83;1.30;;;;;;;13.54;35.60;100583.69;4999734;28;20455;-70
2021/03/19 01:43:04;;;;;;;1.03;0.77;;;;;;;13.57;35.68;100602.72;5001584;28;20042;-69
2021/03/19 01:46:07;;;;;;;0.60;0.60;;;;;;;13.62;35.50;100591.47;4991852;28;20483;-71
2021/03/19 01:49:11;;;;;;;2.63;1.37;;;;;;;13.46;35.74;100611.25;4994547;28;20150;-74
2021/03/19 01:52:15;;;;;;;3.60;1.27;;;;;;;13.44;35.76;100607.13;4991637;28;20054;-69
2021/03/19 01:55:19;;;;;;;4.33;1.00;;;;;;;13.29;36.07;100605.28;4999711;28;20430;-70
2021/03/19 01:58:23;;;;;;;6.60;1.07;;;;;;;13.36;35.80;100610.56;4999778;28;20052;-70
2021/03/19 02:01:27;;;;;;;1.20;1.10;;;;;;;13.27;35.91;100608.41;4998662;28;20128;-78
2021/03/19 02:04:31;;;;;;;6.43;1.13;;;;;;;13.26;36.09;100606.75;4996704;28;20619;-72
2021/03/19 02:07:36;;;;;;;0.90;0.87;;;;;;;13.24;36.03;100610.97;4998672;28;20541;-69
2021/03/19 02:10:39;;;;;;;0.93;0.87;;;;;;;13.18;36.18;100612.13;4997090;28;20077;-76
2021/03/19 02:13:43;;;;;;;0.90;0.70;;;;;;;12.99;36.50;100617.63;4999595;28;20064;-69
2021/03/19 02:16:47;;;;;;;9.70;1.33;;;;;;;13.00;36.26;100628.56;4996419;28;20049;-66
2021/03/19 02:19:51;;;;;;;0.73;0.73;;;;;;;12.94;36.49;100631.72;4996519;28;20050;-70
2021/03/19 02:22:55;;;;;;;1.10;1.00;;;;;;;12.67;37.03;100626.63;4999857;28;20050;-70
2021/03/19 02:25:58;;;;;;;2.13;1.13;;;;;;;12.72;36.87;100621.00;4995777;28;20376;-72
2021/03/19 02:29:02;;;;;;;0.57;0.57;;;;;;;12.57;37.19;100630.34;4998221;28;20720;-70
2021/03/19 02:31:54;;;;;;;4.90;1.10;;;;;;;12.59;36.81;100627.25;4993009;28;20064;-71
2021/03/19 02:34:23;;;;;;;1.40;0.70;;;;;;;12.61;36.59;100616.56;4994353;28;20487;-75
2021/03/19 02:36:50;;;;;;;0.93;0.65;;;;;;;12.52;36.99;100631.22;4999786;28;20487;-76
2021/03/19 02:39:16;;;;;;;6.67;1.00;;;;;;;12.45;37.05;100619.50;5000243;28;20046;-74
2021/03/19 02:41:42;;;;;;;1.57;0.70;;;;;;;12.51;37.17;100640.75;4996419;28;20121;-71
2021/03/19 02:44:10;;;;;;;2.90;0.80;;;;;;;12.65;36.79;100651.28;4999995;28;20069;-72
2021/03/19 02:46:36;;;;;;;0.63;0.50;;;;;;;12.57;36.67;100621.94;4998227;28;20077;-72
2021/03/19 02:49:03;;;;;;;0.60;0.60;;;;;;;12.23;36.80;100588.28;4995363;28;20057;-70
2021/03/19 02:51:30;;;;;;;0.50;0.50;;;;;;;12.73;36.41;100617.88;5001584;28;20176;-71
2021/03/19 02:53:57;;;;;;;5.43;1.50;;;;;;;12.95;36.27;100628.59;4996684;28;20093;-71
2021/03/19 02:56:23;;;;;;;0.40;0.40;;;;;;;12.75;36.55;100620.38;4998091;28;20046;-70
2021/03/19 02:58:49;;;;;;;1.90;0.87;;;;;;;12.70;36.45;100638.06;5003190;28;20046;-72
2021/03/19 03:01:16;;;;;;;0.70;0.60;;;;;;;12.72;36.60;100627.44;5000565;28;20043;-72
2021/03/19 03:03:43;;;;;;;1.70;0.60;;;;;;;12.70;36.50;100642.84;4999814;28;20682;-70
2021/03/19 03:06:09;;;;;;;2.90;0.97;;;;;;;12.76;36.47;100642.50;5003024;28;20057;-74
2021/03/19 03:08:36;;;;;;;1.47;0.87;;;;;;;12.64;36.61;100649.63;5003860;28;20046;-70
2021/03/19 03:11:03;;;;;;;1.73;0.80;;;;;;;12.56;36.47;100628.66;5005668;28;20109;-73
2021/03/19 03:13:30;;;;;;;0.40;0.40;;;;;;;12.48;36.74;100651.72;4997957;28;20052;-74
2021/03/19 03:15:56;;;;;;;2.07;0.53;;;;;;;12.28;36.94;100624.69;5004870;28;20486;-75
2021/03/19 03:18:23;;;;;;;1.73;0.80;;;;;;;12.39;37.10;100634.66;4998411;28;20054;-73
2021/03/19 03:20:56;;;;;;;0.60;0.50;;;;;;;12.23;37.24;100621.91;5001805;28;20053;-75
2021/03/19 03:23:26;;;;;;;1.20;0.60;;;;;;;12.09;37.42;100628.13;5002854;28;20054;-73
2021/03/19 03:25:53;;;;;;;;;;;;;;;11.97;37.70;100633.25;5001185;28;20507;-78
2021/03/19 03:28:20;;;;;;;0.53;0.43;;;;;;;12.00;37.60;100624.28;4990198;28;19921;-75
2021/03/19 03:30:51;;;;;;;1.97;1.00;;;;;;;11.97;37.77;100624.03;5002813;28;20145;-80
2021/03/19 03:33:18;;;;;;;3.00;0.57;;;;;;;12.07;37.36;100635.16;4997137;28;20053;-79
2021/03/19 03:35:46;;;;;;;0.93;0.30;;;;;;;12.00;37.43;100629.88;4996669;28;20524;-79
2021/03/19 03:38:19;;;;;;;0.87;0.43;;;;;;;11.85;37.82;100632.75;4998086;28;20050;-81
2021/03/19 03:41:05;;;;;;;1.13;0.57;;;;;;;11.70;37.93;100618.81;4997880;28;20185;-78
2021/03/19 03:43:32;;;;;;;0.43;0.43;;;;;;;11.79;37.85;100629.09;4994881;28;20072;-70
2021/03/19 03:45:58;;;;;;;1.40;0.50;;;;;;;11.79;37.64;100633.84;5000408;28;20046;-72
2021/03/19 03:48:29;;;;;;;0.97;0.70;;;;;;;12.01;37.31;100631.56;4999820;28;20057;-75
2021/03/19 03:50:56;;;;;;;0.70;0.47;;;;;;;12.01;37.43;100631.56;4996022;28;20045;-75
2021/03/19 03:53:23;;;;;;;1.33;0.43;;;;;;;12.07;37.10;100630.41;4997234;28;20046;-79
2021/03/19 03:55:49;;;;;;;0.27;0.27;;;;;;;11.95;37.53;100638.28;5000835;28;20042;-67
2021/03/19 03:58:18;;;;;;;1.07;0.70;;;;;;;12.06;37.36;100644.66;4997290;28;20136;-65
2021/03/19 04:00:45;;;;;;;2.87;0.90;;;;;;;12.15;37.30;100633.72;5002517;28;20073;-64
2021/03/19 04:03:12;;;;;;;0.30;0.30;;;;;;;12.17;37.12;100623.06;4999020;28;20476;-63
2021/03/19 04:05:44;;;;;;;0.63;0.63;;;;;;;12.12;37.29;100623.09;4997120;28;20129;-64
2021/03/19 04:08:15;;;;;;;1.63;1.10;;;;;;;12.16;37.11;100626.97;5003629;28;20476;-63
2021/03/19 04:10:43;;;;;;;2.63;0.80;;;;;;;12.03;37.22;100634.03;4997245;28;20050;-64
2021/03/19 04:13:11;;;;;;;0.63;0.60;;;;;;;11.97;37.06;100629.63;4996409;28;20050;-65
2021/03/19 04:15:40;;;;;;;0.40;0.40;;;;;;;12.07;37.22;100658.41;4994225;28;20050;-65
2021/03/19 04:18:10;;;;;;;2.70;0.70;;;;;;;11.99;37.16;100667.38;5000269;28;20206;-66
2021/03/19 04:20:38;;;;;;;1.03;0.73;;;;;;;11.70;37.83;100641.19;4994362;28;20054;-66
2021/03/19 04:23:24;;;;;;;0.33;0.33;;;;;;;11.88;37.67;100656.53;4998873;28;20414;-63
2021/03/19 04:25:52;;;;;;;1.33;0.40;;;;;;;11.74;37.61;100650.69;4997930;28;20052;-66
2021/03/19 04:28:21;;;;;;;0.97;0.37;;;;;;;11.82;37.44;100636.91;5000781;28;20056;-66
2021/03/19 04:30:47;;;;;;;1.92;0.47;;;;;;;11.62;37.86;100646.25;4997529;28;20137;-66
2021/03/19 04:33:22;;;;;;;1.07;0.60;;;;;;;11.77;37.69;100664.09;4996412;28;20056;-67
2021/03/19 04:36:31;;;;;;;0.97;0.50;;;;;;;11.85;37.38;100660.72;4999801;28;20053;-66
2021/03/19 04:39:04;;;;;;;1.15;0.32;;;;;;;11.61;37.69;100650.16;4995896;28;20078;-65
2021/03/19 04:41:31;;;;;;;0.73;0.50;;;;;;;11.72;37.93;100664.09;4994366;28;20081;-65
2021/03/19 04:43:59;;;;;;;1.90;1.40;;;;;;;11.68;37.80;100649.03;4997050;28;20047;-66
2021/03/19 04:46:25;;;;;;;0.40;0.40;;;;;;;11.74;37.64;100664.66;4998313;28;20054;-65
2021/03/19 04:48:52;;;;;;;0.87;0.40;;;;;;;11.78;37.62;100665.78;4999765;28;20045;-66
2021/03/19 04:51:19;;;;;;;0.90;0.50;;;;;;;11.92;37.46;100666.84;5011507;22;20535;-68
2021/03/19 04:53:51;;;;;;;2.70;0.70;;;;;;;12.07;37.04;100674.34;4960709;28;20098;-69
2021/03/19 04:56:18;;;;;;;1.70;0.70;;;;;;;11.98;37.39;100676.91;4959023;28;20047;-64
2021/03/19 04:58:48;;;;;;;;;;;;;;;11.60;38.00;100678.44;4980288;28;20153;-66
2021/03/19 05:01:15;;;;;;;3.60;0.60;;;;;;;11.63;38.09;100669.47;4986175;28;20023;-68
2021/03/19 05:03:43;;;;;;;0.40;0.40;;;;;;;11.46;38.22;100669.78;4979775;28;20043;-64
2021/03/19 05:06:10;;;;;;;0.57;0.57;;;;;;;11.51;38.29;100644.59;4985015;28;20074;-67
2021/03/19 05:08:40;;;;;;;0.47;0.47;;;;;;;11.28;38.74;100648.88;4982860;28;20576;-60
2021/03/19 05:11:06;;;;;;;1.90;0.73;;;;;;;11.15;39.06;100636.31;4981896;28;20074;-59
2021/03/19 05:13:33;;;;;;;0.57;0.43;;;;;;;11.24;38.98;100627.34;4963575;28;20130;-63
2021/03/19 05:15:59;;;;;;;4.40;0.93;;;;;;;11.31;38.85;100639.91;4986158;28;20948;-68
2021/03/19 05:18:26;;;;;;;0.50;0.50;;;;;;;11.15;38.77;100602.78;4981234;28;20050;-67
2021/03/19 05:20:52;;;;;;;15.37;1.10;;;;;;;11.44;38.47;100624.50;4972951;28;20050;-73
2021/03/19 05:23:26;;;;;;;0.93;0.53;;;;;;;11.58;38.32;100628.34;4964956;28;20146;-70
2021/03/19 05:25:53;;;;;;;0.77;0.70;;;;;;;11.73;37.71;100640.63;4980347;28;20133;-70
2021/03/19 05:28:20;;;;;;;2.90;0.90;;;;;;;12.05;37.51;100643.00;4983687;28;20039;-65
2021/03/19 05:30:52;;;;;;;0.60;0.60;;;;;;;12.28;36.85;100642.31;4986837;28;20038;-69
2021/03/19 05:33:25;;;;;;;2.07;1.00;;;;;;;12.32;36.81;100634.16;4980931;28;20106;-71
2021/03/19 05:35:55;;;;;;;1.37;0.70;;;;;;;12.31;36.84;100636.13;4986765;28;20117;-76
2021/03/19 05:38:22;;;;;;;0.93;0.80;;;;;;;12.40;36.68;100633.53;4985630;28;20452;-67
2021/03/19 05:40:52;;;;;;;4.53;1.13;;;;;;;12.37;36.87;100638.88;4984463;28;20106;-64
2021/03/19 05:43:21;;;;;;;2.73;1.00;;;;;;;12.32;36.71;100642.56;4985503;28;20563;-64
2021/03/19 05:45:59;;;;;;;2.70;1.10;;;;;;;12.37;36.46;100639.72;4986859;28;20070;-63
2021/03/19 05:48:34;;;;;;;2.83;1.20;;;;;;;12.54;36.16;100642.94;4966830;28;20133;-66
2021/03/19 05:51:02;;;;;;;0.30;0.30;;;;;;;12.56;36.01;100637.91;4980717;28;20388;-72
2021/03/19 05:53:41;;;;;;;1.03;0.70;;;;;;;12.63;36.07;100647.94;4984569;28;20141;-67
2021/03/19 05:56:17;;;;;;;2.60;1.00;;;;;;;12.72;35.82;100663.03;4969710;28;21612;-66
2021/03/19 05:58:47;;;;;;;3.77;1.00;;;;;;;12.79;35.86;100663.53;4983688;28;20058;-70
2021/03/19 06:01:15;;;;;;;1.50;1.03;;;;;;;12.85;35.92;100667.09;4981367;28;20109;-66
2021/03/19 06:03:45;;;;;;;3.07;1.00;;;;;;;12.86;35.83;100669.63;4983159;28;20484;-62
2021/03/19 06:06:13;;;;;;;4.40;1.20;;;;;;;12.84;36.14;100668.22;4982937;28;20136;-63
2021/03/19 06:08:44;;;;;;;4.60;1.10;;;;;;;12.88;36.04;100684.16;4982858;28;20074;-65
2021/03/19 06:11:16;;;;;;;2.30;0.80;;;;;;;12.92;36.29;100685.28;4981669;28;20470;-63
2021/03/19 06:13:50;;;;;;;3.27;1.27;;;;;;;12.86;36.17;100678.03;4975386;28;20369;-67
2021/03/19 06:16:42;;;;;;;2.03;1.10;;;;;;;12.85;36.17;100684.75;4984522;28;20081;-63
2021/03/19 06:19:31;;;;;;;4.43;1.37;;;;;;;12.82;36.23;100682.56;4986496;28;20141;-66
2021/03/19 06:22:15;;;;;;;2.53;1.20;;;;;;;12.81;36.11;100684.50;4978009;28;20054;-62
2021/03/19 06:25:29;;;;;;;1.27;0.97;;;;;;;12.78;35.85;100679.47;4981860;28;20054;-62
2021/03/19 06:28:05;;;;;;;0.97;0.87;;;;;;;12.73;35.98;100665.50;4984833;28;20098;-63
2021/03/19 06:30:43;;;;;;;1.93;1.10;;;;;;;12.82;36.11;100679.75;4980495;28;20058;-62
2021/03/19 06:33:12;;;;;;;1.57;0.90;;;;;;;12.79;36.03;100674.72;4967851;28;20043;-61
2021/03/19 06:35:46;;;;;;;3.53;1.00;;;;;;;12.81;35.87;100678.06;4983427;28;20452;-60
2021/03/19 06:38:43;;;;;;;2.33;1.33;;;;;;;12.73;36.19;100685.13;4983301;28;20050;-61
2021/03/19 06:41:35;;;;;;;2.90;1.03;;;;;;;12.77;36.24;100682.56;4978635;28;20134;-61
2021/03/19 06:44:11;;;;;;;2.17;0.80;;;;;;;12.79;36.15;100680.34;4974409;28;20544;-60
2021/03/19 06:46:57;;;;;;;1.37;1.00;;;;;;;12.78;36.07;100687.88;4984856;28;20125;-58
2021/03/19 06:49:26;;;;;;;4.00;1.33;;;;;;;12.79;35.95;100686.78;4973476;28;20533;-59
2021/03/19 06:52:13;;;;;;;5.07;1.40;;;;;;;12.72;36.13;100683.47;4981265;28;20109;-59
2021/03/19 06:54:51;;;;;;;1.87;0.93;;;;;;;12.80;36.06;100710.03;4981644;28;20053;-58
2021/03/19 06:57:21;;;;;;;3.00;0.97;;;;;;;12.72;36.04;100705.06;4981609;28;20054;-58
2021/03/19 06:59:50;;;;;;;1.58;1.10;;;;;;;12.89;36.01;100721.44;4983338;28;20141;-57
2021/03/19 07:02:32;;;;;;;2.22;0.93;;;;;;;12.92;35.89;100716.09;4982205;28;20133;-62
2021/03/19 07:05:41;;;;;;;4.30;1.13;;;;;;;12.90;35.93;100698.72;4979933;28;20050;-69
2021/03/19 07:08:22;;;;;;;2.80;1.50;;;;;;;12.91;36.07;100707.97;4979493;28;20054;-60
2021/03/19 07:11:09;;;;;;;1.97;0.90;;;;;;;12.90;36.06;100723.13;4981796;28;20153;-60
2021/03/19 07:13:50;;;;;;;1.60;1.10;;;;;;;12.95;36.40;100712.69;4979517;28;20065;-58
2021/03/19 07:17:00;;;;;;;1.87;1.10;;;;;;;12.95;36.50;100725.88;4980505;28;20515;-59
2021/03/19 07:19:48;;;;;;;2.33;1.20;;;;;;;12.85;36.55;100723.16;4963315;28;20054;-59
2021/03/19 07:22:35;;;;;;;;;;;;;;;12.89;36.29;100727.03;4984693;28;20421;-57
2021/03/19 07:25:26;;;;;;;3.23;1.40;;;;;;;12.70;36.58;100724.09;4983252;28;19922;-60
2021/03/19 07:28:11;;;;;;;5.90;2.27;;;;;;;12.65;36.61;100735.34;4970763;28;20055;-58
2021/03/19 07:30:51;;;;;;;4.40;2.00;;;;;;;12.60;37.10;100747.41;4986985;28;20236;-60
2021/03/19 07:33:33;;;;;;;2.80;1.20;;;;;;;12.59;37.16;100745.75;4981588;28;20077;-59
2021/03/19 07:36:02;;;;;;;4.53;1.70;;;;;;;12.55;37.35;100751.09;4987169;28;20043;-58
2021/03/19 07:38:32;;;;;;;2.42;1.30;;;;;;;12.53;37.45;100742.13;4982375;28;20062;-58
2021/03/19 07:41:30;;;;;;;5.80;1.80;;;;;;;12.57;37.41;100748.00;4979964;28;20126;-58
2021/03/19 07:44:21;;;;;;;3.57;1.53;;;;;;;12.59;37.74;100740.16;4981566;28;20500;-57
2021/03/19 07:46:52;;;;;;;4.83;1.70;;;;;;;12.62;37.66;100738.75;4981275;28;20747;-58
2021/03/19 07:49:45;;;;;;;4.80;2.17;;;;;;;12.67;37.48;100733.91;4985453;28;20043;-59
2021/03/19 07:52:30;;;;;;;8.00;1.97;;;;;;;12.75;37.81;100736.13;4978434;28;20185;-57
2021/03/19 07:55:16;;;;;;;3.90;1.77;;;;;;;12.80;37.82;100743.66;4984692;28;20053;-58
2021/03/19 07:57:53;;;;;;;10.83;4.23;;;;;;;12.89;37.72;100747.53;4980885;28;20054;-58
2021/03/19 08:00:25;;;;;;;9.13;3.90;;;;;;;13.05;37.76;100759.44;4977583;28;20414;-59
2021/03/19 08:03:27;;;;;;;12.70;5.07;;;;;;;13.22;37.65;100753.41;4984057;28;20496;-58
2021/03/19 08:05:55;;;;;;;9.50;3.87;;;;;;;13.49;37.39;100767.78;4978252;28;20411;-59
2021/03/19 08:08:38;;;;;;;5.83;3.50;;;;;;;13.62;37.17;100731.75;4985814;28;20458;-58
2021/03/19 08:11:11;;;;;;;3.97;2.80;;;;;;;13.97;36.86;100756.63;4981706;28;20046;-57
2021/03/19 08:13:52;;;;;;;5.00;3.13;;;;;;;14.17;36.43;100771.56;4984765;28;20458;-59
2021/03/19 08:16:23;;;;;;;6.03;2.47;;;;;;;14.31;36.27;100778.13;4980366;28;20088;-59
2021/03/19 08:19:08;;;;;;;4.20;2.07;;;;;;;14.33;36.10;100775.84;4981673;28;20094;-59
2021/03/19 08:21:47;;;;;;;4.30;2.27;;;;;;;14.33;35.96;100780.66;4982755;28;20586;-59
2021/03/19 08:24:27;;;;;;;2.73;1.70;;;;;;;14.20;35.93;100759.72;4979260;28;20498;-60
2021/03/19 08:27:26;;;;;;;6.97;2.67;;;;;;;14.45;35.86;100778.22;4974656;28;20054;-58
2021/03/19 08:30:02;;;;;;;4.17;2.47;;;;;;;14.80;35.73;100790.13;4970765;28;20379;-58
2021/03/19 08:33:15;;;;;;;3.17;1.80;;;;;;;15.18;35.45;100785.38;4955504;28;20046;-59
2021/03/19 08:35:49;;;;;;;4.73;1.93;;;;;;;15.45;35.33;100778.16;4963182;28;20038;-59
2021/03/19 08:38:36;;;;;;;6.57;2.23;;;;;;;15.46;35.11;100780.66;4973634;28;20086;-59
2021/03/19 08:41:39;;;;;;;5.60;2.03;;;;;;;15.39;34.79;100780.22;4974664;28;20074;-59
2021/03/19 08:44:13;;;;;;;4.50;1.90;;;;;;;15.39;34.92;100771.78;4975660;28;20099;-60
2021/03/19 08:46:48;;;;;;;3.80;1.23;;;;;;;15.45;34.98;100766.88;4980522;28;20050;-59
2021/03/19 08:49:24;;;;;;;4.47;1.50;;;;;;;15.49;34.85;100768.78;4985637;28;20416;-59
2021/03/19 08:51:54;;;;;;;5.07;1.40;;;;;;;15.77;34.66;100764.09;4980973;28;20055;-58
2021/03/19 08:54:29;;;;;;;4.00;1.80;;;;;;;16.02;34.38;100761.91;4977593;28;20043;-60
2021/03/19 08:57:04;;;;;;;2.77;1.40;;;;;;;16.40;33.71;100759.72;4975334;28;20093;-59
2021/03/19 08:59:35;;;;;;;4.27;1.73;;;;;;;16.70;33.05;100754.56;4978139;28;20046;-59
2021/03/19 09:02:25;;;;;;;3.38;1.67;;;;;;;16.85;33.14;100759.84;4981245;28;20101;-59
2021/03/19 09:04:58;;;;;;;4.80;1.55;;;;;;;16.97;32.81;100756.50;4973703;28;20060;-59
2021/03/19 09:07:30;;;;;;;3.93;1.30;;;;;;;16.98;32.51;100753.34;4980876;28;20136;-58
2021/03/19 09:10:27;;;;;;;1.50;1.30;;;;;;;17.08;32.06;100751.44;4979409;28;20054;-58
2021/03/19 09:12:56;;;;;;;4.30;1.37;;;;;;;17.35;31.61;100756.13;4941038;28;21765;-59
2021/03/19 09:15:30;;;;;;;2.53;1.50;;;;;;;17.53;31.21;100746.59;4981433;28;20069;-60
2021/03/19 09:18:42;;;;;;;3.77;1.43;;;;;;;17.78;31.35;100742.31;4982495;28;20446;-59
2021/03/19 09:21:27;;;;;;;5.07;1.70;;;;;;;17.66;31.42;100740.03;4971714;28;20424;-59
2021/03/19 09:24:13;;;;;;;3.70;1.60;;;;;;;17.58;31.02;100728.72;4972045;28;20300;-59
2021/03/19 09:26:44;;;;;;;5.63;2.30;;;;;;;17.81;30.68;100747.31;4976930;28;20070;-59
2021/03/19 09:29:14;;;;;;;4.83;1.87;;;;;;;17.78;30.69;100739.50;4976671;28;20630;-59
2021/03/19 09:31:55;;;;;;;3.50;2.03;;;;;;;17.72;30.73;100747.22;4979859;28;20133;-58
2021/03/19 09:34:42;;;;;;;3.10;2.00;;;;;;;17.77;30.98;100752.75;4981169;28;20464;-58
2021/03/19 09:37:40;;;;;;;2.80;1.60;;;;;;;17.84;30.39;100718.38;4914895;29;20170;-58
2021/03/19 09:40:37;;;;;;;1.80;1.40;;;;;;;18.62;30.36;100746.91;4969436;28;20057;-60
2021/03/19 09:43:04;;;;;;;2.30;1.30;;;;;;;19.22;29.64;100745.31;4977491;28;20042;-60
2021/03/19 09:45:37;;;;;;;6.17;1.93;;;;;;;19.36;29.53;100740.28;4978176;28;20133;-58
2021/03/19 09:48:18;;;;;;;7.03;2.10;;;;;;;19.71;29.08;100743.06;4976860;28;20554;-58
2021/03/19 09:50:54;;;;;;;3.67;1.80;;;;;;;20.11;28.59;100734.25;4981850;28;20057;-58
2021/03/19 09:53:25;;;;;;;3.17;1.85;;;;;;;20.55;28.38;100744.22;4979684;28;20054;-59
2021/03/19 09:55:58;;;;;;;2.53;1.58;;;;;;;21.22;27.61;100730.16;4979742;28;20053;-59
2021/03/19 09:58:42;;;;;;;2.97;1.65;;;;;;;21.53;27.12;100715.50;4976132;28;20050;-60
2021/03/19 10:01:17;;;;;;;4.28;1.40;;;;;;;21.80;26.89;100733.94;4979230;28;20487;-61
2021/03/19 10:03:47;;;;;;;2.47;1.58;;;;;;;21.85;26.65;100718.69;4979333;28;20498;-60
2021/03/19 10:06:30;;;;;;;4.38;1.73;;;;;;;22.16;26.33;100732.38;4975274;28;20498;-61
2021/03/19 10:09:08;;;;;;;2.60;1.70;;;;;;;22.59;25.97;100725.22;4983398;28;20408;-61
2021/03/19 10:11:48;;;;;;;5.40;1.55;;;;;;;23.13;25.48;100734.25;4984535;28;20145;-60
2021/03/19 10:14:19;;;;;;;;;;;;;;;23.16;26.38;100727.00;4987063;28;20054;-59
2021/03/19 10:16:46;;;;;;;3.88;1.63;;;;;;;23.37;25.13;100733.31;4981327;28;19926;-59
2021/03/19 10:19:34;;;;;;;2.70;1.63;;;;;;;23.10;25.03;100719.91;4980006;28;20112;-58
2021/03/19 10:22:06;;;;;;;4.72;1.98;;;;;;;23.05;25.03;100714.47;4980061;28;20047;-61
2021/03/19 10:24:34;;;;;;;3.30;2.20;;;;;;;23.19;25.12;100709.19;4981258;28;20053;-59
2021/03/19 10:27:11;;;;;;;4.07;2.13;;;;;;;23.42;25.00;100721.69;4981386;28;20388;-60
2021/03/19 10:29:42;;;;;;;8.68;2.17;;;;;;;23.47;24.60;100714.06;4984782;28;20046;-59
2021/03/19 10:32:16;;;;;;;8.73;2.42;;;;;;;23.43;25.03;100713.97;4985535;28;20060;-58
2021/03/19 10:35:07;;;;;;;6.03;2.13;;;;;;;23.61;24.61;100714.44;4980451;28;20050;-59
2021/03/19 10:37:46;;;;;;;7.78;2.80;;;;;;;23.81;24.38;100716.25;4983771;28;20136;-58
2021/03/19 10:40:20;;;;;;;5.28;2.58;;;;;;;23.94;24.08;100701.91;4979719;28;20046;-60
2021/03/19 10:42:52;;;;;;;8.40;2.10;;;;;;;24.07;23.95;100695.75;4978335;28;20061;-58
2021/03/19 10:45:38;;;;;;;4.18;2.53;;;;;;;24.39;24.13;100669.19;4983483;28;20054;-59
2021/03/19 10:48:13;;;;;;;3.30;2.00;;;;;;;24.67;23.95;100664.16;4985436;28;20054;-59
2021/03/19 10:51:11;;;;;;;5.72;1.98;;;;;;;25.45;23.43;100652.72;4977837;28;20054;-57
2021/03/19 10:53:49;;;;;;;3.22;1.90;;;;;;;26.08;22.62;100646.50;4975903;28;20066;-59
2021/03/19 10:56:17;;;;;;;6.30;2.83;;;;;;;26.68;22.23;100660.13;4980155;28;20042;-58
2021/03/19 10:58:53;;;;;;;4.80;2.00;;;;;;;27.16;21.52;100675.53;4987220;28;20495;-58
2021/03/19 11:01:32;;;;;;;5.47;2.47;;;;;;;27.36;21.49;100673.31;4980524;28;20113;-58
2021/03/19 11:04:27;;;;;;;4.57;2.72;;;;;;;27.46;21.40;100683.25;4979294;28;20504;-58
2021/03/19 11:06:55;;;;;;;6.10;2.38;;;;;;;27.68;21.17;100658.47;4985804;28;20054;-58
2021/03/19 11:09:25;;;;;;;6.57;2.70;;;;;;;27.96;20.84;100654.22;4982407;28;20488;-60
2021/03/19 11:11:58;;;;;;;6.68;2.10;;;;;;;27.84;20.92;100661.13;4985328;28;20496;-58
2021/03/19 11:14:28;;;;;;;5.10;2.53;;;;;;;27.81;20.69;100667.66;4982688;28;20057;-59
2021/03/19 11:17:14;;;;;;;7.45;2.97;;;;;;;28.06;20.12;100662.13;4981885;28;21439;-59
2021/03/19 11:20:07;;;;;;;5.55;2.53;;;;;;;28.33;20.65;100659.84;4986458;28;20050;-58
2021/03/19 11:22:46;;;;;;;5.20;2.63;;;;;;;28.24;20.25;100650.75;4986609;28;20125;-59
2021/03/19 11:25:32;;;;;;;3.97;2.40;;;;;;;28.08;20.46;100665.41;4985670;28;20590;-58
2021/03/19 11:27:59;;;;;;;6.72;2.83;;;;;;;28.23;20.34;100674.97;4985162;28;20039;-58
2021/03/19 11:30:33;;;;;;;4.10;2.45;;;;;;;28.55;20.09;100678.13;4988687;28;20606;-59
2021/03/19 11:33:06;;;;;;;4.72;2.85;;;;;;;28.83;19.70;100671.69;4984069;28;20047;-59
2021/03/19 11:35:33;;;;;;;2.85;2.42;;;;;;;29.05;19.63;100661.97;4984250;28;20454;-60
2021/03/19 11:38:00;;;;;;;4.03;2.55;;;;;;;29.00;19.17;100658.66;4986319;28;20042;-59
2021/03/19 11:40:34;;;;;;;11.27;3.95;;;;;;;29.08;19.30;100642.25;4984757;28;20047;-58
2021/03/19 11:43:03;;;;;;;5.03;2.60;;;;;;;29.33;18.72;100660.41;4981988;28;20555;-59
2021/03/19 11:45:36;;;;;;;4.47;2.80;;;;;;;29.03;18.91;100652.13;4980905;28;20483;-59
2021/03/19 11:48:17;;;;;;;6.38;2.90;;;;;;;29.09;18.93;100635.28;4989464;28;20499;-60
2021/03/19 11:51:08;;;;;;;5.50;2.47;;;;;;;29.30;19.34;100623.84;4984426;28;20050;-59
2021/03/19 11:53:34;;;;;;;8.48;3.15;;;;;;;29.37;18.35;100632.50;4978517;28;20431;-61
2021/03/19 11:56:13;;;;;;;5.20;2.67;;;;;;;29.53;18.77;100621.41;4985737;28;20049;-59
2021/03/19 11:58:40;;;;;;;8.32;3.35;;;;;;;30.05;18.02;100611.59;4988092;28;20049;-60
2021/03/19 12:01:08;;;;;;;5.50;3.10;;;;;;;30.72;17.75;100607.75;4985049;28;20503;-60
2021/03/19 12:03:49;;;;;;;4.22;3.08;;;;;;;31.45;16.82;100591.78;4981496;28;20051;-58
2021/03/19 12:06:20;;;;;;;6.05;3.35;;;;;;;32.19;16.41;100607.69;4983027;28;20045;-59
2021/03/19 12:08:47;;;;;;;4.82;3.10;;;;;;;32.49;16.07;100603.28;4985221;28;20053;-60